Montrose Regional Airport
KMTJ : rendu visible

Aérodrome :











RETROUVEZ-NOUS SUR...

 
LOGIN :

S'inscrire | Disclaimer

   EN    FR    IT 

 









Légende :    VFR   VFR Marginal   IFR   IFR Intensif   IFR Très Intensif
Visi : 
Plafond : 
>= 8 km
>= 3000ft
5 à 8 km
1000 à 3000 ft
1500m à 5 km
500 à 1000 ft
800 à 1500m
200 à 500 ft
< 800m
< 200 ft
Symboles :   Orages  Brouillard  Fortes neiges  Fortes précipitations  Vent > 20 kt







- Altitude de l'aérodrome : 5759 ft


KMTJ - Montrose Regional

DERNIER METAR :
  • 151153Z AUTO 16007KT 10SM CLR 10/M01 A3025 RMK AO2 SLP174 T01001011 10172 20100 55001

METARs EXPIRÉS :
  • 151053Z AUTO 16005KT 10SM CLR 11/M01 A3025 RMK AO2 SLP169 T01111006
  • 150953Z AUTO 13008KT 10SM CLR 13/M02 A3025 RMK AO2 SLP166 T01331022

TAF KMTJ
Valide du 15 à 12h jusqu'au 16 à 12h UTC


151120Z 1512/1612 16006KT P6SM SCT250
FM152100 26005KT P6SM SCT100 OVC150
FM160000 23005KT P6SM VCSH SCT080 OVC100
FM160300 14005KT P6SM VCSH BKN080
Pas de NOTAMs connus pour ce terrain.



MET'MAP, la Météo Aéronautique d'un coup d'oeil ! - Copyright ORBIFLY Décembre 2007 - Disclaimer

ORBIFLY MET'MAP TEAM :

Programmation & Développement : Alexandra Zaïnal
Conception & Développement : Baudouin d'Aumeries
Co-Programmation & Développement : Marc-Olivier Méhu
Soutien technique & logistique : Manuel Goepfert

Contact : metmap@orbifly.com




SOURCES & CREDITS :

   NOAA       Earth
Advisory